Aérodrome :
LOGIN :

S'inscrire | Disclaimer

   EN    FR    IT 

 










Légende :    VFR   VFR Marginal   IFR   IFR Intensif   IFR Très Intensif
Visi : 
Plafond : 
>= 8 km
>= 3000ft
5 à 8 km
1000 à 3000 ft
1500m à 5 km
500 à 1000 ft
800 à 1500m
200 à 500 ft
< 800m
< 200 ft
Symboles :   Orages  Brouillard  Fortes neiges  Fortes précipitations  Vent > 20 kt
SIGMETs :   Divers  Orages  Givrage  Turbulence  Onde Orograph.  Cendres Volcan.






- Altitude de l'aérodrome : 1106 ft


LFSO - Nancy / Ochey

DERNIER METAR :
  • 100530Z AUTO 24003KT 9999 BKN008 OVC056 01/M00 Q1027

METARs EXPIRÉS :
  • 100500Z AUTO VRB03KT 9999 OVC008 01/01 Q1027
  • 100430Z AUTO 30004KT 9999 BKN008 BKN060 01/M00 Q1027
  • 100400Z AUTO 27005KT CAVOK 00/M00 Q1026
  • 100330Z AUTO 26005KT CAVOK 01/M00 Q1026
  • 100300Z AUTO 26004KT 9999 SCT008 01/M00 Q1026

TAF AMD TAF LFSO
Valide du 10 à 05h jusqu'au 11 à 03h UTC


100530Z 1005/1103 23005KT 9999 OVC008
BECMG 1013/1015 SCT010
BECMG 1015/1017 NSC
BECMG 1102/1103 -RA OVC030



MET'MAP, la Météo Aéronautique d'un coup d'oeil ! - Copyright ORBIFLY Décembre 2007 - Disclaimer

ORBIFLY MET'MAP TEAM :

Programmation & Développement : Alexandra Zaïnal
Sur une idée originale de : Baudouin d'Aumeries
Assistance à la programmation : Marc-Olivier Méhu
Soutien technique & logistique : Manuel Goepfert

Contact : metmap@orbifly.com




SOURCES & CREDITS :

   NOAA